createdAt,value
2018-08-03T00:00:11.368Z,14.57
2018-08-03T00:02:39.340Z,15.77
2018-08-03T00:05:07.113Z,14.33
2018-08-03T00:07:34.831Z,15.00
2018-08-03T00:10:02.630Z,15.10
2018-08-03T00:12:30.309Z,14.67
2018-08-03T00:14:58.079Z,15.27
2018-08-03T00:17:25.734Z,13.80
2018-08-03T00:19:53.471Z,14.80
2018-08-03T00:22:21.143Z,15.00
2018-08-03T00:24:48.864Z,15.43
2018-08-03T00:27:16.484Z,14.83
2018-08-03T00:29:44.236Z,15.20
2018-08-03T00:32:11.861Z,15.13
2018-08-03T00:34:39.667Z,15.53
2018-08-03T00:37:07.337Z,15.90
2018-08-03T00:39:35.077Z,16.60
2018-08-03T00:42:02.867Z,16.07
2018-08-03T00:44:30.612Z,16.43
2018-08-03T00:46:58.360Z,15.90
2018-08-03T00:49:25.998Z,16.17
2018-08-03T00:51:53.742Z,17.00
2018-08-03T00:54:21.372Z,15.67
2018-08-03T00:56:48.995Z,16.80
2018-08-03T00:59:16.767Z,17.83
2018-08-03T01:01:44.570Z,16.83
2018-08-03T01:04:12.368Z,18.33
2018-08-03T01:06:40.071Z,16.80
2018-08-03T01:09:09.336Z,16.40
2018-08-03T01:11:36.969Z,17.27
2018-08-03T01:14:05.076Z,16.43
2018-08-03T01:16:37.250Z,16.73
2018-08-03T01:19:05.048Z,19.40
2018-08-03T01:21:32.714Z,17.07
2018-08-03T01:24:00.435Z,18.53
2018-08-03T01:26:28.055Z,16.53
2018-08-03T01:28:55.752Z,16.40
2018-08-03T01:31:23.507Z,18.17
2018-08-03T01:33:51.144Z,18.53
2018-08-03T01:36:18.903Z,17.30
2018-08-03T01:38:46.516Z,19.17
2018-08-03T01:41:14.260Z,17.37
2018-08-03T01:43:41.904Z,17.80
2018-08-03T01:46:09.657Z,16.93
2018-08-03T01:48:37.280Z,18.47
2018-08-03T01:51:05.024Z,18.50
2018-08-03T01:53:32.651Z,17.60
2018-08-03T01:56:00.279Z,18.80
2018-08-03T01:58:27.994Z,18.97
2018-08-03T02:00:55.611Z,17.87
2018-08-03T02:03:23.476Z,18.33
2018-08-03T02:05:51.135Z,17.97
2018-08-03T02:08:18.831Z,19.23
2018-08-03T02:10:46.603Z,19.03
2018-08-03T02:13:14.318Z,18.57
2018-08-03T02:15:41.951Z,19.43
2018-08-03T02:18:09.717Z,19.30
2018-08-03T02:20:37.365Z,20.33
2018-08-03T02:23:05.146Z,19.40
2018-08-03T02:25:32.803Z,19.07
2018-08-03T02:28:00.535Z,20.50
2018-08-03T02:30:28.169Z,19.60
2018-08-03T02:32:55.937Z,19.80
2018-08-03T02:35:23.615Z,19.73
2018-08-03T02:37:51.535Z,19.50
2018-08-03T02:40:19.165Z,18.47
2018-08-03T02:42:46.831Z,20.03
2018-08-03T02:45:14.554Z,19.10
2018-08-03T02:47:42.927Z,20.87
2018-08-03T02:50:10.644Z,19.20
2018-08-03T02:52:38.300Z,21.37
2018-08-03T02:55:06.071Z,19.93
2018-08-03T02:57:33.735Z,18.97
2018-08-03T03:00:01.431Z,20.40
2018-08-03T03:02:29.170Z,19.30
2018-08-03T03:04:56.910Z,19.47
2018-08-03T03:07:24.536Z,19.67
2018-08-03T03:09:52.255Z,19.83
2018-08-03T03:12:19.936Z,20.30
2018-08-03T03:14:47.672Z,20.00
2018-08-03T03:17:15.288Z,19.63
2018-08-03T03:19:43.089Z,20.07
2018-08-03T03:22:10.680Z,20.37
2018-08-03T03:24:38.288Z,20.63
2018-08-03T03:27:06.035Z,21.73
2018-08-03T03:29:33.662Z,21.00
2018-08-03T03:32:01.380Z,19.37
2018-08-03T03:34:29.070Z,21.20
2018-08-03T03:36:56.807Z,22.80
2018-08-03T03:39:24.439Z,20.20
2018-08-03T03:41:52.139Z,20.87
2018-08-03T03:44:19.780Z,20.47
2018-08-03T03:46:47.516Z,22.10
2018-08-03T03:49:15.143Z,20.13
2018-08-03T03:51:42.799Z,21.70
2018-08-03T03:54:10.551Z,20.10
2018-08-03T03:56:38.159Z,21.93
2018-08-03T03:59:05.942Z,20.50
2018-08-03T04:01:33.691Z,20.87
2018-08-03T04:04:01.504Z,22.00
2018-08-03T04:06:29.122Z,21.03
2018-08-03T04:08:56.904Z,20.87
2018-08-03T04:11:24.516Z,19.77
2018-08-03T04:13:52.229Z,22.10
2018-08-03T04:16:19.944Z,20.93
2018-08-03T04:18:47.686Z,21.27
2018-08-03T04:21:15.311Z,21.15
2018-08-03T04:23:43.008Z,21.63
2018-08-03T04:26:10.625Z,20.23
2018-08-03T04:28:38.335Z,20.77
2018-08-03T04:31:05.958Z,21.90
2018-08-03T04:33:33.559Z,20.70
2018-08-03T04:36:01.267Z,22.60
2018-08-03T04:38:28.887Z,20.97
2018-08-03T04:40:56.626Z,22.27
2018-08-03T04:43:24.259Z,21.00
2018-08-03T04:45:52.008Z,20.93
2018-08-03T04:48:19.656Z,22.10
2018-08-03T04:50:47.440Z,20.23
2018-08-03T04:53:15.133Z,21.43
2018-08-03T04:55:43.027Z,19.70
2018-08-03T04:58:10.687Z,21.43
2018-08-03T05:00:38.508Z,24.97
2018-08-03T05:03:06.340Z,22.30
2018-08-03T05:05:34.137Z,24.17
2018-08-03T05:08:01.835Z,23.37
2018-08-03T05:10:29.583Z,24.10
2018-08-03T05:12:57.310Z,23.43
2018-08-03T05:15:25.243Z,22.43
2018-08-03T05:17:52.937Z,22.33
2018-08-03T05:20:20.792Z,22.87
2018-08-03T05:22:48.462Z,23.10
2018-08-03T05:25:16.257Z,22.47
2018-08-03T05:27:43.988Z,24.07
2018-08-03T05:30:11.614Z,22.48
2018-08-03T05:32:39.322Z,22.57
2018-08-03T05:35:07.686Z,24.83
2018-08-03T05:37:35.403Z,23.37
2018-08-03T05:40:03.119Z,23.47
2018-08-03T05:42:30.905Z,23.70
2018-08-03T05:44:58.483Z,22.87
2018-08-03T05:47:26.240Z,24.77
2018-08-03T05:49:53.867Z,23.67
2018-08-03T05:52:21.625Z,26.43
2018-08-03T05:54:49.241Z,26.10
2018-08-03T05:57:16.955Z,27.33
2018-08-03T05:59:44.604Z,24.23
2018-08-03T06:02:12.412Z,25.77
2018-08-03T06:04:40.135Z,27.27
2018-08-03T06:07:07.871Z,27.43
2018-08-03T06:09:35.505Z,27.00
2018-08-03T06:12:03.329Z,27.10
2018-08-03T06:14:30.987Z,26.67
2018-08-03T06:16:58.695Z,24.30
2018-08-03T06:19:26.434Z,24.97
2018-08-03T06:21:54.189Z,26.27
2018-08-03T06:24:21.850Z,27.40
2018-08-03T06:26:49.479Z,28.67
2018-08-03T06:29:17.207Z,24.50
2018-08-03T06:31:44.857Z,24.60
2018-08-03T06:34:12.564Z,27.43
2018-08-03T06:36:40.159Z,26.87
2018-08-03T06:39:09.275Z,25.40
2018-08-03T06:41:36.891Z,25.80
2018-08-03T06:44:04.663Z,24.57
2018-08-03T06:46:32.302Z,22.30
2018-08-03T06:49:00.039Z,24.70
2018-08-03T06:51:27.749Z,24.50
2018-08-03T06:53:55.480Z,24.73
2018-08-03T06:56:23.147Z,24.50
2018-08-03T06:58:50.917Z,23.80
2018-08-03T07:01:18.667Z,23.60
2018-08-03T07:03:46.374Z,24.53
2018-08-03T07:06:14.123Z,25.10
2018-08-03T07:08:41.741Z,25.37
2018-08-03T07:11:09.530Z,23.83
2018-08-03T07:13:37.151Z,23.40
2018-08-03T07:16:04.914Z,23.10
2018-08-03T07:18:32.534Z,24.23
2018-08-03T07:21:00.273Z,21.97
2018-08-03T07:23:27.951Z,22.47
2018-08-03T07:25:55.785Z,21.70
2018-08-03T07:28:23.356Z,21.37
2018-08-03T07:30:51.106Z,21.50
2018-08-03T07:33:18.731Z,18.53
2018-08-03T07:35:47.418Z,17.47
2018-08-03T07:38:15.020Z,18.00
2018-08-03T07:40:42.830Z,16.90
2018-08-03T07:43:10.768Z,16.70
2018-08-03T07:45:38.564Z,15.80
2018-08-03T07:48:06.399Z,15.03
2018-08-03T07:50:34.122Z,14.67
2018-08-03T07:53:01.763Z,14.30
2018-08-03T07:55:29.395Z,14.93
2018-08-03T07:57:57.756Z,15.03
2018-08-03T08:00:25.482Z,15.10
2018-08-03T08:02:53.397Z,15.63
2018-08-03T08:05:21.113Z,16.33
2018-08-03T08:07:48.867Z,17.17
2018-08-03T08:10:17.120Z,17.33
2018-08-03T08:12:44.823Z,17.23
2018-08-03T08:15:12.528Z,16.30
2018-08-03T08:17:40.248Z,16.97
2018-08-03T08:20:07.886Z,16.97
2018-08-03T08:22:40.547Z,16.47
2018-08-03T08:25:11.488Z,16.20
2018-08-03T08:27:42.934Z,17.23
2018-08-03T08:30:18.517Z,15.63
2018-08-03T08:32:53.326Z,15.20
2018-08-03T08:35:21.087Z,15.90
2018-08-03T08:37:52.534Z,15.33
2018-08-03T08:40:27.732Z,16.40
2018-08-03T08:42:59.965Z,15.83
2018-08-03T08:45:27.726Z,14.63
2018-08-03T08:47:59.543Z,15.17
2018-08-03T08:50:31.312Z,15.30
2018-08-03T08:53:01.273Z,15.40
2018-08-03T08:55:29.030Z,14.47
2018-08-03T08:57:56.885Z,18.57
2018-08-03T09:00:25.320Z,15.87
2018-08-03T09:02:55.180Z,15.57
2018-08-03T09:05:23.551Z,16.77
2018-08-03T09:07:51.298Z,15.40
2018-08-03T09:10:18.924Z,14.50
2018-08-03T09:12:46.732Z,15.30
2018-08-03T09:15:15.167Z,14.77
2018-08-03T09:17:42.898Z,14.30
2018-08-03T09:20:10.570Z,14.00
2018-08-03T09:22:38.334Z,12.90
2018-08-03T09:25:06.123Z,13.27
2018-08-03T09:27:33.883Z,14.17
2018-08-03T09:30:01.555Z,13.90
2018-08-03T09:32:29.337Z,15.53
2018-08-03T09:34:57.070Z,15.50
2018-08-03T09:37:24.784Z,15.17
2018-08-03T09:39:52.992Z,14.83
2018-08-03T09:42:20.764Z,15.80
2018-08-03T09:44:48.985Z,15.50
2018-08-03T09:47:17.001Z,16.00
2018-08-03T09:49:46.217Z,13.27
2018-08-03T09:52:16.848Z,13.47
2018-08-03T09:54:50.529Z,13.93
2018-08-03T09:57:19.206Z,14.40
2018-08-03T09:59:46.912Z,13.33
2018-08-03T10:02:14.567Z,12.97
2018-08-03T10:04:42.371Z,14.30
2018-08-03T10:07:10.025Z,13.67
2018-08-03T10:09:37.748Z,14.43
2018-08-03T10:12:05.462Z,13.37
2018-08-03T10:14:33.108Z,13.23
2018-08-03T10:17:03.088Z,13.47
2018-08-03T10:19:30.778Z,13.03
2018-08-03T10:21:58.611Z,12.87
2018-08-03T10:24:26.345Z,13.13
2018-08-03T10:26:55.058Z,13.27
2018-08-03T10:29:23.615Z,13.30
2018-08-03T10:31:51.345Z,12.57
2018-08-03T10:34:19.912Z,13.43
2018-08-03T10:36:49.242Z,12.87
2018-08-03T10:39:20.731Z,12.50
2018-08-03T10:41:49.562Z,12.87
2018-08-03T10:44:19.396Z,12.70
2018-08-03T10:46:47.152Z,12.50
2018-08-03T10:49:15.814Z,12.83
2018-08-03T10:51:49.588Z,12.23
2018-08-03T10:54:20.851Z,13.00
2018-08-03T10:56:53.492Z,11.73
2018-08-03T10:59:21.035Z,13.03
2018-08-03T11:01:48.758Z,12.80
2018-08-03T11:04:16.516Z,12.83
2018-08-03T11:06:44.328Z,13.07
2018-08-03T11:09:11.988Z,11.57
2018-08-03T11:11:39.640Z,11.80
2018-08-03T11:14:07.539Z,12.40
2018-08-03T11:16:35.394Z,12.43
2018-08-03T11:19:03.201Z,11.30
2018-08-03T11:21:31.076Z,10.63
2018-08-03T11:23:58.824Z,11.40
2018-08-03T11:26:26.483Z,10.77
2018-08-03T11:28:54.240Z,10.87
2018-08-03T11:31:21.892Z,11.60
2018-08-03T11:33:49.655Z,11.60
2018-08-03T11:36:17.325Z,11.63
2018-08-03T11:38:45.095Z,11.60
2018-08-03T11:41:16.751Z,10.87
2018-08-03T11:43:49.632Z,10.40
2018-08-03T11:50:26.203Z,11.20
2018-08-03T11:52:57.186Z,10.97
2018-08-03T11:58:03.835Z,9.80
2018-08-03T12:00:32.085Z,9.77
2018-08-03T12:03:08.846Z,9.20
2018-08-03T12:05:40.453Z,9.63
2018-08-03T12:08:08.136Z,9.87
2018-08-03T12:10:35.911Z,9.87
2018-08-03T12:13:12.570Z,9.67
2018-08-03T12:15:47.760Z,10.07
2018-08-03T12:18:23.918Z,10.17
2018-08-03T12:20:56.321Z,9.77
2018-08-03T12:23:29.241Z,9.40
2018-08-03T12:26:02.492Z,8.83
2018-08-03T12:28:37.775Z,10.20
2018-08-03T12:31:12.590Z,8.77
2018-08-03T12:33:44.503Z,8.63
2018-08-03T12:36:17.429Z,9.40
2018-08-03T12:38:48.867Z,9.90
2018-08-03T12:41:22.145Z,9.10
2018-08-03T12:46:32.608Z,8.87
2018-08-03T12:49:00.348Z,9.27
2018-08-03T12:51:28.032Z,8.43
2018-08-03T12:53:56.763Z,9.10
2018-08-03T12:56:34.351Z,10.00
2018-08-03T12:59:05.389Z,9.03
2018-08-03T13:01:36.385Z,9.90
2018-08-03T13:04:06.328Z,8.50
2018-08-03T13:06:37.358Z,9.97
2018-08-03T13:09:10.471Z,9.17
2018-08-03T13:11:38.572Z,9.57
2018-08-03T13:14:06.268Z,9.63
2018-08-03T13:16:34.109Z,9.40
2018-08-03T13:19:03.862Z,9.40
2018-08-03T13:21:37.222Z,8.97
2018-08-03T13:24:06.684Z,9.33
2018-08-03T13:26:40.582Z,8.73
2018-08-03T13:29:09.177Z,9.00
2018-08-03T13:31:42.995Z,9.33
2018-08-03T13:34:13.619Z,8.53
2018-08-03T13:36:41.412Z,7.97
2018-08-03T13:39:09.250Z,7.90
2018-08-03T13:41:37.002Z,8.90
2018-08-03T13:44:04.859Z,8.53
2018-08-03T13:46:32.582Z,8.60
2018-08-03T13:49:00.319Z,8.93
2018-08-03T13:51:28.012Z,9.13
2018-08-03T13:53:56.712Z,9.80
2018-08-03T13:56:29.757Z,9.00
2018-08-03T13:58:57.475Z,9.37
2018-08-03T14:01:36.428Z,9.20
2018-08-03T14:04:04.335Z,9.40
2018-08-03T14:06:34.117Z,9.20
2018-08-03T14:09:09.174Z,8.80
2018-08-03T14:11:40.579Z,8.90
2018-08-03T14:14:15.212Z,9.97
2018-08-03T14:16:42.963Z,9.60
2018-08-03T14:19:10.887Z,8.30
2018-08-03T14:21:41.359Z,9.27
2018-08-03T14:24:09.047Z,9.43
2018-08-03T14:26:36.868Z,8.70
2018-08-03T14:29:04.556Z,8.73
2018-08-03T14:31:32.380Z,8.60
2018-08-03T14:34:00.032Z,9.17
2018-08-03T14:36:27.775Z,7.70
2018-08-03T14:38:56.036Z,9.80
2018-08-03T14:41:26.341Z,8.90
2018-08-03T14:44:01.255Z,10.10
2018-08-03T14:46:29.234Z,9.03
2018-08-03T14:48:56.908Z,9.37
2018-08-03T14:51:25.897Z,9.17
2018-08-03T14:53:57.399Z,9.10
2018-08-03T14:56:25.329Z,9.93
2018-08-03T14:58:53.138Z,10.20
2018-08-03T15:01:20.796Z,9.60
2018-08-03T15:03:48.660Z,8.80
2018-08-03T15:06:16.406Z,8.77
2018-08-03T15:08:44.198Z,8.57
2018-08-03T15:11:11.941Z,8.93
2018-08-03T15:13:39.727Z,8.50
2018-08-03T15:16:07.434Z,8.97
2018-08-03T15:18:35.341Z,8.40
2018-08-03T15:21:03.284Z,9.30
2018-08-03T15:23:30.932Z,7.90
2018-08-03T15:25:59.651Z,8.63
2018-08-03T15:28:29.080Z,8.23
2018-08-03T15:30:56.863Z,8.87
2018-08-03T15:33:25.596Z,8.23
2018-08-03T15:35:53.673Z,9.60
2018-08-03T15:38:21.412Z,9.23
2018-08-03T15:40:49.195Z,9.70
2018-08-03T15:43:16.878Z,9.27
2018-08-03T15:45:44.718Z,9.47
2018-08-03T15:48:12.394Z,8.93
2018-08-03T15:50:40.137Z,9.03
2018-08-03T15:53:07.920Z,8.60
2018-08-03T15:55:35.783Z,9.43
2018-08-03T15:58:03.538Z,9.67
2018-08-03T16:00:31.261Z,8.93
2018-08-03T16:02:59.088Z,8.97
2018-08-03T16:05:26.780Z,10.00
2018-08-03T16:07:54.535Z,8.67
2018-08-03T16:10:22.205Z,9.40
2018-08-03T16:12:50.047Z,10.23
2018-08-03T16:15:17.733Z,9.63
2018-08-03T16:17:45.391Z,9.40
2018-08-03T16:20:13.201Z,9.17
2018-08-03T16:22:40.969Z,9.07
2018-08-03T16:25:08.704Z,8.20
2018-08-03T16:27:36.447Z,9.30
2018-08-03T16:30:05.559Z,9.73
2018-08-03T16:32:33.255Z,10.40
2018-08-03T16:35:01.238Z,9.60
2018-08-03T16:37:29.043Z,9.13
2018-08-03T16:39:57.591Z,9.70
2018-08-03T16:42:25.396Z,9.17
2018-08-03T16:44:53.234Z,9.43
2018-08-03T16:47:21.156Z,9.07
2018-08-03T16:49:50.400Z,8.87
2018-08-03T16:52:18.277Z,9.30
2018-08-03T16:57:41.699Z,9.10
2018-08-03T17:00:10.508Z,9.87
2018-08-03T17:02:38.268Z,9.50
2018-08-03T17:05:06.223Z,9.60
2018-08-03T17:07:33.899Z,8.17
2018-08-03T17:10:01.620Z,9.10
2018-08-03T17:12:29.377Z,8.83
2018-08-03T17:14:57.023Z,9.23
2018-08-03T17:17:24.791Z,8.50
2018-08-03T17:19:52.422Z,9.03
2018-08-03T17:22:20.188Z,9.17
2018-08-03T17:24:47.898Z,9.07
2018-08-03T17:27:15.655Z,8.20
2018-08-03T17:29:43.291Z,9.07
2018-08-03T17:32:11.048Z,8.70
2018-08-03T17:34:38.695Z,10.00
2018-08-03T17:37:06.482Z,10.13
2018-08-03T17:39:34.173Z,9.17
2018-08-03T17:42:01.933Z,8.97
2018-08-03T17:44:29.584Z,8.83
2018-08-03T17:46:57.338Z,9.10
2018-08-03T17:49:25.141Z,9.87
2018-08-03T17:51:55.686Z,9.90
2018-08-03T17:54:23.446Z,9.47
2018-08-03T17:56:51.184Z,8.97
2018-08-03T17:59:18.969Z,9.13
2018-08-03T18:01:46.857Z,8.40
2018-08-03T18:04:14.619Z,8.83
2018-08-03T18:06:42.310Z,8.50
2018-08-03T18:09:10.315Z,9.43
2018-08-03T18:11:38.058Z,10.00
2018-08-03T18:14:06.184Z,9.47
2018-08-03T18:16:33.952Z,9.00
2018-08-03T18:30:23.915Z,9.73
2018-08-03T18:32:51.728Z,9.20
2018-08-03T18:35:19.417Z,9.63
2018-08-03T18:37:47.217Z,8.97
2018-08-03T18:40:14.929Z,9.37
2018-08-03T18:42:42.745Z,7.67
2018-08-03T18:45:10.516Z,8.80
2018-08-03T18:47:38.347Z,9.13
2018-08-03T18:50:06.679Z,9.03
2018-08-03T18:52:37.291Z,8.70
2018-08-03T18:55:08.390Z,7.97
2018-08-03T18:57:37.316Z,8.97
2018-08-03T19:00:08.107Z,8.00
2018-08-03T19:02:38.422Z,7.80
2018-08-03T19:05:10.420Z,8.30
2018-08-03T19:07:40.494Z,9.37
2018-08-03T19:10:11.532Z,7.47
2018-08-03T19:12:40.524Z,9.53
2018-08-03T19:15:10.479Z,9.10
2018-08-03T19:17:38.208Z,8.43
2018-08-03T19:20:06.756Z,8.63
2018-08-03T19:22:34.474Z,9.30
2018-08-03T19:25:02.244Z,9.30
2018-08-03T19:27:29.944Z,9.40
2018-08-03T19:29:57.747Z,9.87
2018-08-03T19:32:25.417Z,9.43
2018-08-03T19:34:53.068Z,8.73
2018-08-03T19:37:20.856Z,9.67
2018-08-03T19:39:48.684Z,9.10
2018-08-03T19:42:16.400Z,10.63
2018-08-03T19:44:44.190Z,10.00
2018-08-03T19:47:11.988Z,9.80
2018-08-03T19:49:39.651Z,9.90
2018-08-03T19:52:07.420Z,9.37
2018-08-03T19:54:35.109Z,10.20
2018-08-03T19:57:02.886Z,10.07
2018-08-03T19:59:30.613Z,9.93
2018-08-03T20:01:58.507Z,10.00
2018-08-03T20:04:26.349Z,10.17
2018-08-03T20:06:54.225Z,10.40
2018-08-03T20:09:21.888Z,10.47
2018-08-03T20:11:49.692Z,9.60
2018-08-03T20:14:17.380Z,9.43
2018-08-03T20:16:45.181Z,10.17
2018-08-03T20:19:12.836Z,9.33
2018-08-03T20:21:40.588Z,10.13
2018-08-03T20:24:08.389Z,9.20
2018-08-03T20:26:36.093Z,9.40
2018-08-03T20:29:03.877Z,9.13
2018-08-03T20:31:31.602Z,9.90
2018-08-03T20:33:59.417Z,9.50
2018-08-03T20:36:27.114Z,9.40
2018-08-03T20:38:54.883Z,8.87
2018-08-03T20:41:22.563Z,9.00
2018-08-03T20:43:50.379Z,9.23
2018-08-03T20:46:18.124Z,10.30
2018-08-03T20:48:45.901Z,9.30
2018-08-03T20:51:13.569Z,10.13
2018-08-03T20:53:41.391Z,9.80
2018-08-03T20:56:09.089Z,9.23
2018-08-03T20:58:36.842Z,9.67
2018-08-03T21:01:04.618Z,9.30
2018-08-03T21:03:32.533Z,8.77
2018-08-03T21:06:00.227Z,9.00
2018-08-03T21:08:28.012Z,9.60
2018-08-03T21:10:55.969Z,9.53
2018-08-03T21:13:23.793Z,8.97
2018-08-03T21:15:51.617Z,8.80
2018-08-03T21:18:19.321Z,8.77
2018-08-03T21:20:47.088Z,9.10
2018-08-03T21:23:14.788Z,8.70
2018-08-03T21:25:42.527Z,9.80
2018-08-03T21:28:10.301Z,8.67
2018-08-03T21:30:38.075Z,9.07
2018-08-03T21:33:05.778Z,10.20
2018-08-03T21:35:33.610Z,9.60
2018-08-03T21:38:01.274Z,10.83
2018-08-03T21:40:29.038Z,9.30
2018-08-03T21:42:56.747Z,9.77
2018-08-03T21:45:24.520Z,9.93
2018-08-03T21:47:52.203Z,10.70
2018-08-03T21:50:20.002Z,8.93
2018-08-03T21:52:47.704Z,10.13
2018-08-03T21:55:15.487Z,10.07
2018-08-03T21:57:43.194Z,11.00
2018-08-03T22:00:16.344Z,10.57
2018-08-03T22:02:44.120Z,11.63
2018-08-03T22:05:11.899Z,10.37
2018-08-03T22:07:39.609Z,11.43
2018-08-03T22:10:07.356Z,11.40
2018-08-03T22:12:35.316Z,10.23
2018-08-03T22:15:03.110Z,10.83
2018-08-03T22:17:30.906Z,10.17
2018-08-03T22:19:58.605Z,10.17
2018-08-03T22:22:26.347Z,10.80
2018-08-03T22:24:54.412Z,9.67
2018-08-03T22:27:22.205Z,9.50
2018-08-03T22:29:49.855Z,9.80
2018-08-03T22:32:17.656Z,9.60
2018-08-03T22:34:45.303Z,10.37
2018-08-03T22:37:13.074Z,10.13
2018-08-03T22:39:40.740Z,9.80
2018-08-03T22:42:08.537Z,10.60
2018-08-03T22:44:36.242Z,10.47
2018-08-03T22:47:04.008Z,10.30
2018-08-03T22:49:31.725Z,11.17
2018-08-03T22:51:59.519Z,10.33
2018-08-03T22:54:27.270Z,11.00
2018-08-03T22:56:54.930Z,10.63
2018-08-03T22:59:22.676Z,10.50
2018-08-03T23:01:50.371Z,10.10
2018-08-03T23:04:18.238Z,10.33
2018-08-03T23:06:45.903Z,9.40
2018-08-03T23:09:13.679Z,10.83
2018-08-03T23:11:41.348Z,10.00
2018-08-03T23:14:09.107Z,10.03
2018-08-03T23:16:36.759Z,10.90
2018-08-03T23:19:04.567Z,10.33
2018-08-03T23:21:32.214Z,10.10
2018-08-03T23:23:59.895Z,10.40
2018-08-03T23:26:27.615Z,10.20
2018-08-03T23:28:55.294Z,11.10
2018-08-03T23:31:23.060Z,10.87
2018-08-03T23:33:50.809Z,11.30
2018-08-03T23:36:18.592Z,11.87
2018-08-03T23:38:46.244Z,11.93
2018-08-03T23:41:14.008Z,12.40
2018-08-03T23:43:41.680Z,11.67
2018-08-03T23:46:09.428Z,10.10
2018-08-03T23:48:37.096Z,11.10
2018-08-03T23:51:04.891Z,9.90
2018-08-03T23:53:32.556Z,11.60
2018-08-03T23:56:00.318Z,11.57
2018-08-03T23:58:28.162Z,11.60
